createdAt,value
2018-02-04T00:01:49.077Z,16.62
2018-02-04T00:04:16.642Z,17.25
2018-02-04T00:06:44.230Z,16.73
2018-02-04T00:09:11.823Z,15.90
2018-02-04T00:11:39.404Z,16.00
2018-02-04T00:14:07.011Z,16.87
2018-02-04T00:16:34.572Z,16.05
2018-02-04T00:19:02.178Z,18.00
2018-02-04T00:21:30.504Z,16.70
2018-02-04T00:23:58.132Z,17.60
2018-02-04T00:26:26.472Z,17.73
2018-02-04T00:28:54.035Z,15.65
2018-02-04T00:31:21.632Z,17.48
2018-02-04T00:33:49.192Z,16.58
2018-02-04T00:36:16.756Z,17.50
2018-02-04T00:38:44.363Z,15.65
2018-02-04T00:41:11.965Z,15.27
2018-02-04T00:43:40.292Z,17.67
2018-02-04T00:46:07.900Z,20.70
2018-02-04T00:48:36.243Z,19.12
2018-02-04T00:51:03.869Z,20.25
2018-02-04T00:53:31.453Z,20.58
2018-02-04T00:55:59.009Z,17.42
2018-02-04T00:58:26.625Z,18.50
2018-02-04T01:00:54.964Z,16.75
2018-02-04T01:03:22.552Z,17.12
2018-02-04T01:05:50.120Z,17.20
2018-02-04T01:08:17.709Z,16.20
2018-02-04T01:10:46.250Z,17.80
2018-02-04T01:13:13.800Z,16.83
2018-02-04T01:15:41.484Z,16.70
2018-02-04T01:18:09.817Z,15.15
2018-02-04T01:20:37.395Z,16.70
2018-02-04T01:23:05.009Z,14.90
2018-02-04T01:25:32.609Z,15.82
2018-02-04T01:28:00.156Z,16.58
2018-02-04T01:30:28.506Z,17.08
2018-02-04T01:32:56.848Z,16.65
2018-02-04T01:35:24.470Z,17.67
2018-02-04T01:37:52.015Z,16.95
2018-02-04T01:40:19.582Z,16.17
2018-02-04T01:42:47.175Z,17.30
2018-02-04T01:45:14.767Z,18.00
2018-02-04T01:47:42.329Z,16.80
2018-02-04T01:50:09.949Z,16.30
2018-02-04T01:52:37.524Z,16.83
2018-02-04T01:55:05.094Z,15.50
2018-02-04T01:57:32.703Z,17.87
2018-02-04T02:00:00.344Z,17.05
2018-02-04T02:02:28.676Z,15.60
2018-02-04T02:04:56.225Z,18.05
2018-02-04T02:07:23.864Z,19.85
2018-02-04T02:09:51.481Z,16.75
2018-02-04T02:12:26.356Z,17.30
2018-02-04T02:14:56.692Z,18.00
2018-02-04T02:17:26.086Z,17.10
2018-02-04T02:19:56.425Z,16.20
2018-02-04T02:22:26.996Z,16.80
2018-02-04T02:24:56.689Z,17.37
2018-02-04T02:27:25.696Z,21.67
2018-02-04T02:29:55.437Z,16.75
2018-02-04T02:32:23.047Z,19.23
2018-02-04T02:34:50.616Z,17.58
2018-02-04T02:37:18.228Z,17.98
2018-02-04T02:39:46.593Z,16.52
2018-02-04T02:42:14.186Z,18.05
2018-02-04T02:44:41.750Z,20.67
2018-02-04T02:47:10.060Z,20.30
2018-02-04T02:49:38.409Z,21.20
2018-02-04T02:52:06.001Z,18.87
2018-02-04T02:54:33.595Z,20.48
2018-02-04T02:57:01.190Z,21.65
2018-02-04T02:59:29.600Z,20.88
2018-02-04T03:01:57.208Z,22.70
2018-02-04T03:04:25.580Z,21.70
2018-02-04T03:06:53.152Z,21.12
2018-02-04T03:09:21.512Z,19.87
2018-02-04T03:11:49.110Z,18.12
2018-02-04T03:14:16.715Z,21.10
2018-02-04T03:16:44.289Z,18.27
2018-02-04T03:19:11.867Z,19.40
2018-02-04T03:21:39.458Z,19.42
2018-02-04T03:24:07.051Z,20.33
2018-02-04T03:26:34.662Z,20.08
2018-02-04T03:29:03.009Z,19.87
2018-02-04T03:31:30.617Z,19.77
2018-02-04T03:33:58.955Z,18.58
2018-02-04T03:36:26.554Z,18.52
2018-02-04T03:38:54.885Z,18.80
2018-02-04T03:41:22.523Z,17.15
2018-02-04T03:43:50.124Z,15.95
2018-02-04T03:46:17.687Z,16.65
2018-02-04T03:48:45.285Z,16.70
2018-02-04T03:51:12.831Z,17.27
2018-02-04T03:53:41.237Z,15.88
2018-02-04T03:56:08.794Z,15.85
2018-02-04T03:58:36.420Z,17.42
2018-02-04T04:01:03.973Z,18.87
2018-02-04T04:03:31.572Z,16.98
2018-02-04T04:05:59.209Z,17.42
2018-02-04T04:08:27.544Z,16.75
2018-02-04T04:10:55.157Z,16.80
2018-02-04T04:13:23.501Z,17.30
2018-02-04T04:15:51.083Z,16.90
2018-02-04T04:18:18.640Z,16.08
2018-02-04T04:20:46.252Z,16.80
2018-02-04T04:23:13.866Z,19.23
2018-02-04T04:25:41.432Z,17.20
2018-02-04T04:28:09.097Z,16.52
2018-02-04T04:30:36.652Z,17.80
2018-02-04T04:33:04.247Z,16.37
2018-02-04T04:35:31.804Z,18.00
2018-02-04T04:37:59.428Z,15.35
2018-02-04T04:40:27.079Z,17.00
2018-02-04T04:42:54.627Z,16.00
2018-02-04T04:45:22.198Z,15.50
2018-02-04T04:47:49.814Z,18.15
2018-02-04T04:50:17.400Z,15.82
2018-02-04T04:52:45.011Z,15.85
2018-02-04T04:55:13.383Z,16.83
2018-02-04T04:57:40.967Z,16.12
2018-02-04T05:00:09.412Z,16.33
2018-02-04T05:02:37.016Z,18.50
2018-02-04T05:05:05.383Z,16.60
2018-02-04T05:07:32.992Z,16.98
2018-02-04T05:10:01.393Z,19.00
2018-02-04T05:12:28.968Z,18.55
2018-02-04T05:14:56.529Z,17.73
2018-02-04T05:17:24.115Z,17.73
2018-02-04T05:19:52.473Z,18.73
2018-02-04T05:22:20.041Z,18.55
2018-02-04T05:24:48.400Z,18.05
2018-02-04T05:27:15.979Z,18.35
2018-02-04T05:29:43.571Z,19.42
2018-02-04T05:32:11.136Z,17.40
2018-02-04T05:34:38.760Z,19.58
2018-02-04T05:37:06.368Z,16.45
2018-02-04T05:39:33.977Z,20.92
2018-02-04T05:42:01.542Z,19.02
2018-02-04T05:44:29.924Z,19.83
2018-02-04T05:46:57.475Z,17.50
2018-02-04T05:49:25.040Z,17.55
2018-02-04T05:51:53.411Z,18.02
2018-02-04T05:54:20.976Z,14.32
2018-02-04T05:56:48.544Z,17.90
2018-02-04T05:59:16.167Z,15.50
2018-02-04T06:01:43.717Z,16.60
2018-02-04T06:04:11.278Z,16.55
2018-02-04T06:06:38.872Z,15.73
2018-02-04T06:09:06.436Z,15.15
2018-02-04T06:11:34.034Z,14.75
2018-02-04T06:14:01.641Z,15.68
2018-02-04T06:16:29.982Z,15.07
2018-02-04T06:18:57.537Z,14.18
2018-02-04T06:21:25.132Z,14.35
2018-02-04T06:23:52.708Z,14.18
2018-02-04T06:26:20.314Z,13.27
2018-02-04T06:28:48.654Z,13.90
2018-02-04T06:31:16.256Z,14.43
2018-02-04T06:33:44.633Z,13.68
2018-02-04T06:36:12.970Z,16.58
2018-02-04T06:38:40.580Z,15.30
2018-02-04T06:41:08.147Z,16.73
2018-02-04T06:43:35.707Z,15.98
2018-02-04T06:46:03.324Z,16.00
2018-02-04T06:48:30.876Z,15.18
2018-02-04T06:50:58.473Z,15.32
2018-02-04T06:53:26.860Z,16.98
2018-02-04T06:55:55.193Z,16.70
2018-02-04T06:58:22.753Z,16.10
2018-02-04T07:00:50.364Z,16.33
2018-02-04T07:03:18.003Z,15.57
2018-02-04T07:05:45.565Z,16.27
2018-02-04T07:08:13.973Z,15.38
2018-02-04T07:10:41.564Z,15.65
2018-02-04T07:13:09.162Z,16.08
2018-02-04T07:15:36.760Z,15.30
2018-02-04T07:18:04.326Z,14.18
2018-02-04T07:20:31.921Z,14.25
2018-02-04T07:22:59.473Z,13.13
2018-02-04T07:25:27.137Z,14.32
2018-02-04T07:27:54.695Z,14.07
2018-02-04T07:30:22.278Z,14.70
2018-02-04T07:32:49.860Z,14.68
2018-02-04T07:35:18.230Z,13.10
2018-02-04T07:37:45.821Z,13.70
2018-02-04T07:40:14.173Z,15.48
2018-02-04T07:42:41.794Z,12.70
2018-02-04T07:45:09.356Z,12.35
2018-02-04T07:47:36.956Z,13.95
2018-02-04T07:50:04.548Z,14.30
2018-02-04T07:52:32.143Z,13.30
2018-02-04T07:55:00.545Z,15.27
2018-02-04T07:57:28.108Z,14.13
2018-02-04T07:59:55.722Z,13.57
2018-02-04T08:02:23.379Z,14.68
2018-02-04T08:04:50.940Z,14.23
2018-02-04T08:07:18.561Z,13.80
2018-02-04T08:09:46.184Z,14.70
2018-02-04T08:12:13.796Z,14.00
2018-02-04T08:14:42.128Z,15.40
2018-02-04T08:17:09.764Z,13.45
2018-02-04T08:19:37.356Z,14.57
2018-02-04T08:22:04.951Z,15.23
2018-02-04T08:24:32.504Z,14.45
2018-02-04T08:27:00.105Z,14.90
2018-02-04T08:29:27.674Z,15.85
2018-02-04T08:31:55.284Z,16.10
2018-02-04T08:34:22.848Z,14.60
2018-02-04T08:36:50.442Z,14.52
2018-02-04T08:39:18.820Z,14.85
2018-02-04T08:41:47.157Z,15.00
2018-02-04T08:44:14.757Z,14.10
2018-02-04T08:46:46.870Z,15.98
2018-02-04T08:49:14.484Z,16.45
2018-02-04T08:51:42.096Z,17.23
2018-02-04T08:54:09.744Z,16.15
2018-02-04T08:56:37.293Z,18.08
2018-02-04T08:59:04.905Z,15.82
2018-02-04T09:01:32.536Z,16.80
2018-02-04T09:04:00.864Z,17.52
2018-02-04T09:06:29.276Z,19.42
2018-02-04T09:08:56.848Z,16.33
2018-02-04T09:11:24.443Z,16.87
2018-02-04T09:13:52.155Z,15.02
2018-02-04T09:16:19.734Z,16.15
2018-02-04T09:18:47.340Z,15.18
2018-02-04T09:21:15.712Z,15.35
2018-02-04T09:23:43.327Z,15.68
2018-02-04T09:26:10.944Z,17.10
2018-02-04T09:28:38.544Z,16.08
2018-02-04T09:31:06.104Z,17.10
2018-02-04T09:33:33.739Z,15.57
2018-02-04T09:36:02.108Z,15.02
2018-02-04T09:38:29.734Z,16.30
2018-02-04T09:40:57.311Z,17.83
2018-02-04T09:43:24.935Z,18.80
2018-02-04T09:45:52.544Z,14.52
2018-02-04T09:48:20.142Z,17.00
2018-02-04T09:50:48.504Z,18.45
2018-02-04T09:53:16.068Z,16.25
2018-02-04T09:55:44.442Z,18.08
2018-02-04T09:58:12.012Z,18.10
2018-02-04T10:00:40.379Z,14.93
2018-02-04T10:03:08.000Z,18.23
2018-02-04T10:05:36.359Z,16.87
2018-02-04T10:08:04.768Z,16.87
2018-02-04T10:10:32.358Z,18.48
2018-02-04T10:12:59.955Z,18.35
2018-02-04T10:15:27.518Z,16.23
2018-02-04T10:17:55.133Z,18.05
2018-02-04T10:20:22.681Z,16.83
2018-02-04T10:22:50.308Z,17.45
2018-02-04T10:25:17.901Z,18.17
2018-02-04T10:27:45.508Z,19.15
2018-02-04T10:30:13.855Z,19.45
2018-02-04T10:32:41.425Z,17.55
2018-02-04T10:35:09.046Z,18.65
2018-02-04T10:37:36.609Z,19.15
2018-02-04T10:40:04.209Z,19.35
2018-02-04T10:42:31.824Z,19.83
2018-02-04T10:44:59.448Z,18.15
2018-02-04T10:47:27.008Z,19.23
2018-02-04T10:49:55.399Z,17.65
2018-02-04T10:52:23.792Z,18.20
2018-02-04T10:54:51.407Z,20.02
2018-02-04T10:57:18.976Z,18.08
2018-02-04T10:59:46.596Z,19.12
2018-02-04T11:02:14.171Z,19.20
2018-02-04T11:04:41.800Z,16.55
2018-02-04T11:07:09.358Z,18.10
2018-02-04T11:09:36.956Z,18.00
2018-02-04T11:12:04.526Z,16.92
2018-02-04T11:14:32.236Z,18.87
2018-02-04T11:17:00.568Z,19.75
2018-02-04T11:19:28.151Z,18.27
2018-02-04T11:21:55.772Z,17.67
2018-02-04T11:24:23.420Z,18.10
2018-02-04T11:26:50.974Z,18.90
2018-02-04T11:29:18.613Z,17.70
2018-02-04T11:31:46.972Z,15.73
2018-02-04T11:34:14.572Z,15.27
2018-02-04T11:36:42.172Z,16.00
2018-02-04T11:39:09.751Z,15.38
2018-02-04T11:41:37.369Z,14.93
2018-02-04T11:44:05.017Z,14.43
2018-02-04T11:46:33.400Z,14.93
2018-02-04T11:49:00.992Z,13.20
2018-02-04T11:51:28.550Z,13.80
2018-02-04T11:53:56.149Z,12.50
2018-02-04T11:56:23.705Z,11.27
2018-02-04T11:58:51.338Z,10.07
2018-02-04T12:01:18.925Z,9.52
2018-02-04T12:03:46.515Z,7.85
2018-02-04T12:06:14.878Z,6.85
2018-02-04T12:08:42.433Z,6.97
2018-02-04T12:11:10.248Z,7.50
2018-02-04T12:13:37.814Z,7.30
2018-02-04T12:16:06.991Z,7.80
2018-02-04T12:18:34.639Z,8.00
2018-02-04T12:21:02.224Z,7.87
2018-02-04T12:23:29.810Z,9.32
2018-02-04T12:25:57.391Z,8.40
2018-02-04T12:28:24.978Z,9.93
2018-02-04T12:30:52.566Z,7.47
2018-02-04T12:33:20.175Z,7.28
2018-02-04T12:35:47.731Z,5.43
2018-02-04T12:38:15.295Z,5.12
2018-02-04T12:40:42.877Z,5.57
2018-02-04T12:43:10.445Z,5.70
2018-02-04T12:45:38.871Z,6.40
2018-02-04T12:48:06.416Z,8.27
2018-02-04T12:50:34.009Z,7.53
2018-02-04T12:53:01.672Z,7.28
2018-02-04T12:55:29.233Z,5.95
2018-02-04T12:57:56.836Z,7.00
2018-02-04T13:00:25.196Z,7.70
2018-02-04T13:02:52.737Z,6.43
2018-02-04T13:05:20.324Z,6.65
2018-02-04T13:07:47.964Z,6.80
2018-02-04T13:10:17.147Z,6.50
2018-02-04T13:12:44.704Z,7.75
2018-02-04T13:15:12.304Z,8.02
2018-02-04T13:17:39.879Z,7.78
2018-02-04T13:20:08.200Z,8.50
2018-02-04T13:22:35.829Z,7.45
2018-02-04T13:25:04.156Z,6.90
2018-02-04T13:27:31.706Z,8.25
2018-02-04T13:29:59.295Z,7.80
2018-02-04T13:32:26.882Z,7.07
2018-02-04T13:34:55.276Z,7.70
2018-02-04T13:37:22.830Z,8.35
2018-02-04T13:39:51.177Z,8.35
2018-02-04T13:42:18.717Z,7.60
2018-02-04T13:44:46.320Z,8.80
2018-02-04T13:47:14.660Z,8.60
2018-02-04T13:49:42.213Z,8.45
2018-02-04T13:52:09.806Z,8.55
2018-02-04T13:54:37.344Z,8.13
2018-02-04T13:57:04.929Z,8.23
2018-02-04T13:59:32.488Z,7.80
2018-02-04T14:02:00.086Z,8.77
2018-02-04T14:04:27.664Z,8.60
2018-02-04T14:06:55.248Z,9.15
2018-02-04T14:09:22.812Z,9.35
2018-02-04T14:11:50.384Z,9.18
2018-02-04T14:14:17.973Z,10.10
2018-02-04T14:16:46.352Z,10.18
2018-02-04T14:19:14.665Z,9.50
2018-02-04T14:21:42.276Z,10.73
2018-02-04T14:24:09.825Z,8.63
2018-02-04T14:26:37.369Z,8.18
2018-02-04T14:29:04.991Z,7.80
2018-02-04T14:31:32.593Z,8.68
2018-02-04T14:34:00.144Z,8.02
2018-02-04T14:36:28.509Z,8.13
2018-02-04T14:38:56.065Z,9.73
2018-02-04T14:41:23.663Z,8.88
2018-02-04T14:43:51.202Z,9.45
2018-02-04T14:46:18.762Z,9.60
2018-02-04T14:48:46.372Z,10.10
2018-02-04T14:51:14.746Z,9.15
2018-02-04T14:53:42.337Z,8.65
2018-02-04T14:56:09.890Z,9.35
2018-02-04T14:58:38.310Z,10.35
2018-02-04T15:01:05.876Z,10.27
2018-02-04T15:03:33.459Z,9.15
2018-02-04T15:06:01.885Z,8.70
2018-02-04T15:08:29.437Z,8.77
2018-02-04T15:10:57.795Z,7.70
2018-02-04T15:13:25.403Z,9.23
2018-02-04T15:15:53.004Z,8.55
2018-02-04T15:18:21.364Z,8.27
2018-02-04T15:20:48.913Z,7.32
2018-02-04T15:23:16.517Z,7.93
2018-02-04T15:25:44.076Z,9.60
2018-02-04T15:28:11.637Z,7.87
2018-02-04T15:30:39.228Z,6.65
2018-02-04T15:33:06.825Z,11.75
2018-02-04T15:35:34.428Z,9.38
2018-02-04T15:38:02.757Z,7.78
2018-02-04T15:40:30.332Z,8.05
2018-02-04T15:42:57.999Z,7.30
2018-02-04T15:45:25.558Z,7.70
2018-02-04T15:47:53.160Z,7.82
2018-02-04T15:50:21.511Z,7.75
2018-02-04T15:52:49.090Z,8.77
2018-02-04T15:55:17.462Z,8.68
2018-02-04T15:57:45.830Z,8.32
2018-02-04T16:00:13.442Z,8.25
2018-02-04T16:02:40.995Z,9.05
2018-02-04T16:05:08.569Z,8.27
2018-02-04T16:07:36.165Z,8.15
2018-02-04T16:10:03.777Z,8.20
2018-02-04T16:12:31.349Z,9.77
2018-02-04T16:14:58.967Z,10.57
2018-02-04T16:17:26.636Z,9.38
2018-02-04T16:19:54.176Z,8.63
2018-02-04T16:22:21.827Z,9.15
2018-02-04T16:24:49.426Z,9.48
2018-02-04T16:27:17.886Z,10.02
2018-02-04T16:29:45.519Z,9.98
2018-02-04T16:32:13.087Z,9.10
2018-02-04T16:34:40.691Z,9.52
2018-02-04T16:37:09.113Z,9.52
2018-02-04T16:39:36.708Z,9.88
2018-02-04T16:42:04.300Z,9.80
2018-02-04T16:44:32.624Z,10.57
2018-02-04T16:47:00.277Z,8.85
2018-02-04T16:49:27.962Z,9.70
2018-02-04T16:51:55.524Z,10.27
2018-02-04T16:54:23.156Z,10.40
2018-02-04T16:56:50.719Z,11.90
2018-02-04T16:59:18.280Z,11.30
2018-02-04T17:01:45.889Z,11.40
2018-02-04T17:04:13.492Z,10.85
2018-02-04T17:06:41.047Z,11.20
2018-02-04T17:09:08.645Z,11.30
2018-02-04T17:11:37.402Z,11.82
2018-02-04T17:14:05.005Z,11.45
2018-02-04T17:16:32.551Z,12.02
2018-02-04T17:19:00.143Z,11.50
2018-02-04T17:21:27.743Z,11.30
2018-02-04T17:23:55.372Z,11.80
2018-02-04T17:26:23.045Z,11.00
2018-02-04T17:28:51.385Z,11.05
2018-02-04T17:31:18.990Z,12.20
2018-02-04T17:33:47.368Z,11.48
2018-02-04T17:36:15.692Z,11.98
2018-02-04T17:38:43.320Z,10.57
2018-02-04T17:41:11.774Z,10.23
2018-02-04T17:43:39.306Z,11.80
2018-02-04T17:46:06.909Z,11.38
2018-02-04T17:48:35.305Z,12.02
2018-02-04T17:51:04.432Z,13.15
2018-02-04T17:53:32.063Z,12.57
2018-02-04T17:56:00.396Z,12.73
2018-02-04T17:58:28.013Z,13.38
2018-02-04T18:00:55.598Z,11.90
2018-02-04T18:03:23.202Z,11.82
2018-02-04T18:05:50.756Z,12.15
2018-02-04T18:08:18.351Z,12.30
2018-02-04T18:10:45.958Z,12.80
2018-02-04T18:13:13.610Z,12.68
2018-02-04T18:15:41.220Z,11.85
2018-02-04T18:18:09.576Z,14.80
2018-02-04T18:20:37.200Z,13.57
2018-02-04T18:23:04.808Z,12.40
2018-02-04T18:25:32.379Z,12.80
2018-02-04T18:27:59.983Z,11.68
2018-02-04T18:30:27.626Z,12.88
2018-02-04T18:32:56.034Z,13.27
2018-02-04T18:35:23.595Z,13.25
2018-02-04T18:37:51.139Z,13.18
2018-02-04T18:40:18.739Z,12.60
2018-02-04T18:42:46.363Z,12.63
2018-02-04T18:45:14.128Z,13.35
2018-02-04T18:47:41.741Z,12.52
2018-02-04T18:50:09.340Z,11.73
2018-02-04T18:52:36.895Z,14.48
2018-02-04T18:55:05.341Z,13.70
2018-02-04T18:57:32.919Z,14.00
2018-02-04T19:00:00.467Z,14.27
2018-02-04T19:02:28.137Z,12.82
2018-02-04T19:04:55.697Z,15.20
2018-02-04T19:07:24.087Z,14.10
2018-02-04T19:09:52.424Z,13.38
2018-02-04T19:12:20.110Z,13.62
2018-02-04T19:14:47.753Z,14.43
2018-02-04T19:17:15.352Z,12.50
2018-02-04T19:19:43.721Z,13.70
2018-02-04T19:22:11.314Z,13.52
2018-02-04T19:24:38.911Z,14.73
2018-02-04T19:27:06.532Z,15.40
2018-02-04T19:29:34.092Z,14.43
2018-02-04T19:32:02.444Z,14.50
2018-02-04T19:34:30.005Z,15.55
2018-02-04T19:36:58.390Z,15.75
2018-02-04T19:39:25.992Z,14.23
2018-02-04T19:41:53.552Z,16.67
2018-02-04T19:44:21.144Z,16.05
2018-02-04T19:46:48.703Z,16.67
2018-02-04T19:49:16.327Z,14.57
2018-02-04T19:51:43.884Z,15.00
2018-02-04T19:54:11.460Z,15.60
2018-02-04T19:56:39.060Z,15.35
2018-02-04T19:59:06.679Z,16.77
2018-02-04T20:01:35.921Z,16.98
2018-02-04T20:04:03.531Z,14.85
2018-02-04T20:06:31.179Z,14.43
2018-02-04T20:08:59.526Z,16.10
2018-02-04T20:11:27.411Z,13.90
2018-02-04T20:13:54.995Z,16.75
2018-02-04T20:16:23.347Z,16.75
2018-02-04T20:18:50.895Z,15.95
2018-02-04T20:21:18.492Z,17.17
2018-02-04T20:23:46.830Z,17.70
2018-02-04T20:26:14.523Z,15.38
2018-02-04T20:28:42.117Z,15.35
2018-02-04T20:31:09.680Z,16.35
2018-02-04T20:33:49.204Z,19.10
2018-02-04T20:36:16.789Z,18.33
2018-02-04T20:38:44.353Z,18.73
2018-02-04T20:41:11.951Z,18.15
2018-02-04T20:43:39.555Z,17.27
2018-02-04T20:46:07.112Z,16.90
2018-02-04T20:48:34.719Z,17.15
2018-02-04T20:51:02.346Z,17.12
2018-02-04T20:53:29.897Z,18.92
2018-02-04T20:55:57.605Z,17.33
2018-02-04T20:58:25.208Z,16.70
2018-02-04T21:00:53.575Z,19.10
2018-02-04T21:03:24.514Z,17.67
2018-02-04T21:05:52.949Z,16.62
2018-02-04T21:08:20.517Z,17.23
2018-02-04T21:10:48.180Z,18.35
2018-02-04T21:13:16.171Z,15.40
2018-02-04T21:15:44.524Z,16.65
2018-02-04T21:18:12.852Z,18.20
2018-02-04T21:20:41.228Z,16.98
2018-02-04T21:23:08.777Z,17.40
2018-02-04T21:25:36.336Z,15.82
2018-02-04T21:28:03.936Z,16.75
2018-02-04T21:30:31.517Z,16.40
2018-02-04T21:32:59.092Z,18.87
2018-02-04T21:35:26.707Z,16.90
2018-02-04T21:37:55.073Z,17.33
2018-02-04T21:40:22.691Z,19.27
2018-02-04T21:42:50.245Z,17.90
2018-02-04T21:45:17.806Z,17.55
2018-02-04T21:47:45.389Z,18.52
2018-02-04T21:50:12.951Z,18.15
2018-02-04T21:52:40.556Z,17.83
2018-02-04T21:55:08.883Z,18.87
2018-02-04T21:57:36.439Z,20.88
2018-02-04T22:00:04.074Z,17.12
2018-02-04T22:02:31.749Z,18.00
2018-02-04T22:04:59.323Z,17.37
2018-02-04T22:07:26.884Z,18.12
2018-02-04T22:09:54.472Z,19.75
2018-02-04T22:12:22.012Z,18.50
2018-02-04T22:14:49.600Z,18.08
2018-02-04T22:17:17.147Z,20.17
2018-02-04T22:19:44.725Z,21.17
2018-02-04T22:22:12.316Z,21.15
2018-02-04T22:24:39.898Z,19.10
2018-02-04T22:27:08.272Z,19.77
2018-02-04T22:29:35.843Z,17.58
2018-02-04T22:32:03.453Z,17.67
2018-02-04T22:34:31.000Z,19.48
2018-02-04T22:36:58.590Z,20.85
2018-02-04T22:39:26.931Z,19.85
2018-02-04T22:41:54.599Z,18.65
2018-02-04T22:44:22.152Z,20.15
2018-02-04T22:46:49.745Z,19.60
2018-02-04T22:49:18.076Z,19.12
2018-02-04T22:51:45.668Z,19.90
2018-02-04T22:54:13.296Z,20.90
2018-02-04T22:56:40.889Z,18.98
2018-02-04T22:59:08.496Z,20.40
2018-02-04T23:01:36.098Z,21.15
2018-02-04T23:04:03.712Z,19.77
2018-02-04T23:06:31.316Z,20.25
2018-02-04T23:08:58.905Z,21.05
2018-02-04T23:11:26.502Z,21.08
2018-02-04T23:13:54.081Z,20.48
2018-02-04T23:16:21.712Z,21.25
2018-02-04T23:18:49.328Z,22.10
2018-02-04T23:21:16.923Z,20.52
2018-02-04T23:23:45.258Z,22.13
2018-02-04T23:26:12.864Z,24.48
2018-02-04T23:28:41.241Z,22.62
2018-02-04T23:31:09.622Z,25.05
2018-02-04T23:33:37.979Z,23.95
2018-02-04T23:36:05.572Z,23.20
2018-02-04T23:38:33.921Z,23.52
2018-02-04T23:41:01.548Z,24.73
2018-02-04T23:43:29.133Z,26.20
2018-02-04T23:45:56.748Z,25.08
2018-02-04T23:48:24.346Z,25.27
2018-02-04T23:50:51.935Z,24.85
2018-02-04T23:53:19.559Z,23.90
2018-02-04T23:55:47.152Z,26.17
2018-02-04T23:58:14.779Z,26.58
